createdAt,value
2024-02-10T00:02:19.590Z,95013.94
2024-02-10T00:04:48.073Z,95008.84
2024-02-10T00:07:18.297Z,95014.50
2024-02-10T00:09:47.552Z,95013.44
2024-02-10T00:12:16.468Z,95009.97
2024-02-10T00:14:45.281Z,95016.59
2024-02-10T00:17:12.921Z,95014.75
2024-02-10T00:19:48.013Z,95018.69
2024-02-10T00:22:18.254Z,95019.50
2024-02-10T00:24:45.963Z,95013.94
2024-02-10T00:27:18.263Z,95010.72
2024-02-10T00:29:47.330Z,95011.34
2024-02-10T00:32:15.332Z,95014.75
2024-02-10T00:34:43.314Z,95018.13
2024-02-10T00:37:11.543Z,95017.84
2024-02-10T00:39:39.166Z,95016.00
2024-02-10T00:42:06.909Z,95014.94
2024-02-10T00:44:35.505Z,95000.19
2024-02-10T00:47:06.095Z,95006.06
2024-02-10T00:49:34.458Z,95007.44
2024-02-10T00:52:02.003Z,95000.50
2024-02-10T00:54:30.511Z,94991.72
2024-02-10T00:56:58.310Z,94997.63
2024-02-10T00:59:25.831Z,95004.03
2024-02-10T01:01:53.598Z,94998.97
2024-02-10T01:04:22.823Z,95004.84
2024-02-10T01:06:50.799Z,95006.19
2024-02-10T01:09:18.458Z,95008.28
2024-02-10T01:11:47.388Z,95018.41
2024-02-10T01:14:15.425Z,95015.53
2024-02-10T01:16:44.716Z,95019.69
2024-02-10T01:19:12.842Z,95021.91
2024-02-10T01:21:41.901Z,95014.94
2024-02-10T01:24:09.465Z,95010.72
2024-02-10T01:26:37.321Z,95014.94
2024-02-10T01:29:09.555Z,95017.03
2024-02-10T01:31:37.597Z,95019.38
2024-02-10T01:34:05.447Z,95020.19
2024-02-10T01:36:34.381Z,95020.19
2024-02-10T01:39:03.522Z,95010.91
2024-02-10T01:41:31.110Z,95009.88
2024-02-10T01:43:59.839Z,95010.16
2024-02-10T01:46:27.714Z,95004.09
2024-02-10T01:48:56.668Z,95003.28
2024-02-10T01:51:24.772Z,95001.19
2024-02-10T01:53:53.005Z,95005.94
2024-02-10T01:56:21.947Z,94991.97
2024-02-10T01:58:50.136Z,95002.13
2024-02-10T02:01:18.101Z,94997.06
2024-02-10T02:03:48.211Z,94989.06
2024-02-10T02:06:18.826Z,94996.25
2024-02-10T02:08:48.100Z,94987.78
2024-02-10T02:11:15.686Z,94995.75
2024-02-10T02:13:44.867Z,94989.94
2024-02-10T02:16:13.230Z,94991.25
2024-02-10T02:18:42.853Z,94995.50
2024-02-10T02:21:10.445Z,94984.63
2024-02-10T02:23:39.283Z,94982.75
2024-02-10T02:26:06.839Z,94987.00
2024-02-10T02:28:34.503Z,94972.41
2024-02-10T02:31:05.285Z,94976.38
2024-02-10T02:33:34.186Z,94980.97
2024-02-10T02:36:01.900Z,94976.94
2024-02-10T02:38:29.557Z,94979.59
2024-02-10T02:40:58.735Z,94972.75
2024-02-10T02:43:26.416Z,94977.25
2024-02-10T02:45:53.987Z,94967.41
2024-02-10T02:48:21.608Z,94969.56
2024-02-10T02:50:49.313Z,94955.47
2024-02-10T02:53:17.083Z,94952.25
2024-02-10T02:55:46.803Z,94963.00
2024-02-10T02:58:16.216Z,94965.09
2024-02-10T03:00:43.793Z,94953.09
2024-02-10T03:03:11.356Z,94946.97
2024-02-10T03:05:41.681Z,94948.03
2024-02-10T03:08:09.240Z,94945.34
2024-02-10T03:10:36.839Z,94944.31
2024-02-10T03:13:04.677Z,94946.69
2024-02-10T03:15:38.962Z,94953.88
2024-02-10T03:18:07.154Z,94944.53
2024-02-10T03:20:36.353Z,94950.34
2024-02-10T03:23:04.503Z,94943.66
2024-02-10T03:25:33.089Z,94944.91
2024-02-10T03:28:04.690Z,94939.59
2024-02-10T03:30:33.869Z,94947.81
2024-02-10T03:35:29.889Z,94944.91
2024-02-10T03:37:57.482Z,94942.72
2024-02-10T03:40:25.070Z,94941.16
2024-02-10T03:42:52.593Z,94935.84
2024-02-10T03:45:20.358Z,94942.22
2024-02-10T03:47:51.990Z,94934.75
2024-02-10T03:50:19.869Z,94933.66
2024-02-10T03:52:47.765Z,94927.59
2024-02-10T03:55:15.748Z,94938.28
2024-02-10T03:57:43.377Z,94927.28
2024-02-10T04:00:21.390Z,94925.63
2024-02-10T04:02:50.330Z,94922.59
2024-02-10T04:05:18.103Z,94922.25
2024-02-10T04:07:50.875Z,94928.81
2024-02-10T04:10:19.109Z,94927.69
2024-02-10T04:12:48.143Z,94920.75
2024-02-10T04:15:16.000Z,94925.78
2024-02-10T04:17:54.430Z,94923.53
2024-02-10T04:20:24.478Z,94930.38
2024-02-10T04:22:52.301Z,94932.47
2024-02-10T04:25:20.197Z,94919.66
2024-02-10T04:27:47.833Z,94930.00
2024-02-10T04:30:15.453Z,94921.38
2024-02-10T04:32:47.647Z,94923.19
2024-02-10T04:35:16.019Z,94926.13
2024-02-10T04:37:52.435Z,94925.66
2024-02-10T04:40:22.514Z,94926.88
2024-02-10T04:42:50.064Z,94922.00
2024-02-10T04:45:27.409Z,94920.66
2024-02-10T04:47:55.253Z,94928.19
2024-02-10T04:50:23.263Z,94928.91
2024-02-10T04:52:52.854Z,94932.06
2024-02-10T04:55:21.036Z,94938.16
2024-02-10T04:57:49.043Z,94932.22
2024-02-10T05:00:17.719Z,94931.84
2024-02-10T05:02:46.072Z,94930.03
2024-02-10T05:05:13.961Z,94928.28
2024-02-10T05:07:42.263Z,94919.84
2024-02-10T05:10:12.575Z,94926.06
2024-02-10T05:12:40.883Z,94929.00
2024-02-10T05:15:10.853Z,94929.25
2024-02-10T05:17:42.297Z,94921.84
2024-02-10T05:20:14.644Z,94933.22
2024-02-10T05:22:44.673Z,94924.91
2024-02-10T05:25:14.617Z,94924.91
2024-02-10T05:27:46.660Z,94930.94
2024-02-10T05:30:21.487Z,94926.19
2024-02-10T05:32:51.341Z,94928.84
2024-02-10T05:35:20.436Z,94928.94
2024-02-10T05:37:49.077Z,94930.69
2024-02-10T05:40:19.363Z,94927.56
2024-02-10T05:42:48.164Z,94923.88
2024-02-10T05:45:18.111Z,94931.59
2024-02-10T05:47:46.327Z,94925.97
2024-02-10T05:50:16.734Z,94935.59
2024-02-10T05:52:45.192Z,94928.44
2024-02-10T05:55:14.390Z,94924.28
2024-02-10T05:57:43.264Z,94925.09
2024-02-10T06:00:12.165Z,94934.56
2024-02-10T06:02:43.613Z,94941.31
2024-02-10T06:05:12.408Z,94944.16
2024-02-10T06:07:40.126Z,94947.59
2024-02-10T06:10:10.853Z,94953.53
2024-02-10T06:12:40.104Z,94952.91
2024-02-10T06:15:11.213Z,94958.22
2024-02-10T06:17:39.798Z,94959.56
2024-02-10T06:20:13.799Z,94965.44
2024-02-10T06:22:42.317Z,94963.00
2024-02-10T06:25:12.803Z,94957.00
2024-02-10T06:27:42.696Z,94955.53
2024-02-10T06:30:15.025Z,94952.75
2024-02-10T06:32:42.886Z,94953.22
2024-02-10T06:35:10.975Z,94967.78
2024-02-10T06:37:38.875Z,94966.03
2024-02-10T06:40:09.659Z,94971.06
2024-02-10T06:42:38.150Z,94978.63
2024-02-10T06:45:09.124Z,94979.59
2024-02-10T06:47:38.118Z,94982.56
2024-02-10T06:50:06.471Z,94983.28
2024-02-10T06:52:38.060Z,94982.47
2024-02-10T06:55:08.461Z,94982.56
2024-02-10T06:57:42.687Z,94975.41
2024-02-10T07:00:11.622Z,94984.13
2024-02-10T07:02:44.085Z,94991.31
2024-02-10T07:05:13.983Z,94993.72
2024-02-10T07:07:43.014Z,94982.69
2024-02-10T07:10:14.407Z,94987.03
2024-02-10T07:12:43.685Z,94987.38
2024-02-10T07:15:14.161Z,94978.84
2024-02-10T07:17:44.856Z,94988.78
2024-02-10T07:20:16.301Z,94992.69
2024-02-10T07:22:43.937Z,94992.81
2024-02-10T07:25:12.705Z,94991.00
2024-02-10T07:27:40.337Z,94996.03
2024-02-10T07:30:09.027Z,94992.03
2024-02-10T07:32:36.580Z,94994.19
2024-02-10T07:35:07.181Z,94986.59
2024-02-10T07:37:35.702Z,94988.78
2024-02-10T07:40:04.160Z,94992.34
2024-02-10T07:42:31.755Z,94986.25
2024-02-10T07:45:00.362Z,94988.88
2024-02-10T07:47:28.322Z,95001.31
2024-02-10T07:49:56.112Z,94997.84
2024-02-10T07:52:25.010Z,94989.81
2024-02-10T07:54:52.517Z,94981.25
2024-02-10T07:57:21.714Z,94978.09
2024-02-10T07:59:49.903Z,94979.91
2024-02-10T08:02:21.257Z,94983.31
2024-02-10T08:04:51.107Z,94998.84
2024-02-10T08:07:19.683Z,94982.59
2024-02-10T08:09:48.676Z,94985.56
2024-02-10T08:12:19.020Z,94983.81
2024-02-10T08:14:51.248Z,94988.09
2024-02-10T08:17:18.857Z,94997.72
2024-02-10T08:19:46.559Z,94991.72
2024-02-10T08:22:14.901Z,95000.78
2024-02-10T08:24:44.582Z,94999.28
2024-02-10T08:27:17.275Z,95003.22
2024-02-10T08:29:45.166Z,95008.06
2024-02-10T08:32:14.334Z,95009.31
2024-02-10T08:34:44.258Z,95014.06
2024-02-10T08:37:13.442Z,95010.13
2024-02-10T08:39:42.317Z,95014.06
2024-02-10T08:42:11.120Z,95017.63
2024-02-10T08:44:40.246Z,95020.81
2024-02-10T08:47:08.378Z,95016.09
2024-02-10T08:49:36.463Z,95015.50
2024-02-10T08:52:11.622Z,95023.47
2024-02-10T08:54:43.732Z,95017.34
2024-02-10T08:57:11.748Z,95014.56
2024-02-10T08:59:46.670Z,95017.66
2024-02-10T09:02:14.306Z,95010.31
2024-02-10T09:04:42.022Z,95016.84
2024-02-10T09:07:09.934Z,95014.63
2024-02-10T09:09:37.718Z,95008.16
2024-02-10T09:12:06.188Z,95015.75
2024-02-10T09:14:34.884Z,95017.19
2024-02-10T09:17:04.330Z,95016.78
2024-02-10T09:19:38.147Z,95011.28
2024-02-10T09:22:06.218Z,95012.97
2024-02-10T09:24:36.056Z,95008.75
2024-02-10T09:27:05.214Z,95015.00
2024-02-10T09:29:32.979Z,95011.44
2024-02-10T09:32:01.943Z,95013.91
2024-02-10T09:34:31.429Z,95011.63
2024-02-10T09:37:00.344Z,95007.19
2024-02-10T09:39:28.446Z,95000.88
2024-02-10T09:42:05.263Z,95005.50
2024-02-10T09:44:35.138Z,95005.91
2024-02-10T09:47:03.485Z,95003.53
2024-02-10T09:49:34.931Z,95002.56
2024-02-10T09:52:02.551Z,94993.56
2024-02-10T09:54:30.099Z,94991.22
2024-02-10T09:56:58.428Z,94987.31
2024-02-10T09:59:26.656Z,94990.81
2024-02-10T10:01:56.364Z,94984.00
2024-02-10T10:04:24.154Z,94998.66
2024-02-10T10:06:53.056Z,94996.84
2024-02-10T10:09:21.190Z,95003.09
2024-02-10T10:11:51.666Z,95002.53
2024-02-10T10:14:20.060Z,94997.19
2024-02-10T10:16:57.512Z,94986.59
2024-02-10T10:19:27.398Z,94976.81
2024-02-10T10:21:57.167Z,94984.56
2024-02-10T10:24:24.923Z,94972.38
2024-02-10T10:26:55.621Z,94969.72
2024-02-10T10:29:23.714Z,94966.88
2024-02-10T10:31:51.544Z,94970.34
2024-02-10T10:34:21.243Z,94965.34
2024-02-10T10:36:50.286Z,94966.41
2024-02-10T10:39:20.744Z,94968.56
2024-02-10T10:41:48.379Z,94963.50
2024-02-10T10:44:18.152Z,94963.53
2024-02-10T10:46:47.344Z,94964.66
2024-02-10T10:49:17.020Z,94955.09
2024-02-10T10:51:53.426Z,94958.38
2024-02-10T10:54:25.192Z,94950.94
2024-02-10T10:56:53.044Z,94950.97
2024-02-10T10:59:21.879Z,94954.72
2024-02-10T11:01:49.817Z,94962.72
2024-02-10T11:04:19.249Z,94953.41
2024-02-10T11:06:47.002Z,94955.31
2024-02-10T11:09:17.338Z,94966.53
2024-02-10T11:11:48.216Z,94954.78
2024-02-10T11:14:15.743Z,94945.19
2024-02-10T11:16:44.344Z,94951.63
2024-02-10T11:19:17.111Z,94942.88
2024-02-10T11:21:47.734Z,94943.72
2024-02-10T11:24:19.407Z,94943.13
2024-02-10T11:26:48.677Z,94937.56
2024-02-10T11:29:19.903Z,94937.59
2024-02-10T11:31:49.472Z,94934.97
2024-02-10T11:34:19.563Z,94936.31
2024-02-10T11:36:53.057Z,94936.06
2024-02-10T11:39:21.543Z,94925.66
2024-02-10T11:41:50.570Z,94929.44
2024-02-10T11:44:18.100Z,94926.22
2024-02-10T11:46:47.041Z,94918.75
2024-02-10T11:49:14.815Z,94912.38
2024-02-10T11:51:43.500Z,94912.34
2024-02-10T11:54:11.746Z,94917.97
2024-02-10T11:56:39.385Z,94912.34
2024-02-10T11:59:08.464Z,94911.00
2024-02-10T12:01:36.314Z,94908.34
2024-02-10T12:04:05.305Z,94895.53
2024-02-10T12:06:35.051Z,94897.13
2024-02-10T12:09:05.762Z,94886.94
2024-02-10T12:11:33.297Z,94880.81
2024-02-10T12:14:01.209Z,94886.63
2024-02-10T12:16:35.150Z,94885.00
2024-02-10T12:19:05.742Z,94874.50
2024-02-10T12:21:33.739Z,94869.38
2024-02-10T12:24:05.405Z,94862.97
2024-02-10T12:26:33.005Z,94867.78
2024-02-10T12:29:00.569Z,94865.94
2024-02-10T12:31:28.432Z,94870.22
2024-02-10T12:33:57.357Z,94870.28
2024-02-10T12:36:32.430Z,94867.03
2024-02-10T12:38:59.974Z,94868.41
2024-02-10T12:41:27.502Z,94868.16
2024-02-10T12:43:55.124Z,94864.16
2024-02-10T12:46:22.766Z,94860.44
2024-02-10T12:48:51.939Z,94862.31
2024-02-10T12:51:22.265Z,94863.41
2024-02-10T12:53:55.115Z,94857.28
2024-02-10T12:56:23.738Z,94866.66
2024-02-10T12:58:51.336Z,94858.91
2024-02-10T13:01:18.888Z,94853.53
2024-02-10T13:03:46.484Z,94856.25
2024-02-10T13:06:14.222Z,94860.53
2024-02-10T13:08:43.132Z,94861.06
2024-02-10T13:11:10.816Z,94858.13
2024-02-10T13:13:38.501Z,94863.19
2024-02-10T13:16:08.397Z,94858.13
2024-02-10T13:18:41.090Z,94855.47
2024-02-10T13:21:16.935Z,94857.34
2024-02-10T13:23:45.829Z,94862.13
2024-02-10T13:26:13.965Z,94855.97
2024-02-10T13:28:44.159Z,94864.78
2024-02-10T13:31:12.678Z,94855.72
2024-02-10T13:33:42.790Z,94861.84
2024-02-10T13:36:15.852Z,94850.88
2024-02-10T13:39:00.994Z,94852.75
2024-02-10T13:41:47.768Z,94850.09
2024-02-10T13:44:32.676Z,94855.97
2024-02-10T13:47:17.819Z,94847.69
2024-02-10T13:50:03.293Z,94838.09
2024-02-10T13:52:48.552Z,94840.78
2024-02-10T13:55:33.567Z,94836.22
2024-02-10T13:58:10.650Z,94836.47
2024-02-10T14:00:40.281Z,94823.94
2024-02-10T14:03:07.395Z,94827.38
2024-02-10T14:05:56.206Z,94828.97
2024-02-10T14:08:43.097Z,94819.38
2024-02-10T14:11:21.086Z,94817.22
2024-02-10T14:13:52.899Z,94812.69
2024-02-10T14:16:28.734Z,94812.44
2024-02-10T14:18:57.182Z,94820.69
2024-02-10T14:21:33.901Z,94816.97
2024-02-10T14:24:02.320Z,94814.84
2024-02-10T14:26:53.957Z,94817.00
2024-02-10T14:29:32.998Z,94812.72
2024-02-10T14:32:10.795Z,94822.06
2024-02-10T14:34:39.410Z,94817.53
2024-02-10T14:37:28.079Z,94821.78
2024-02-10T14:39:57.835Z,94820.97
2024-02-10T14:42:26.402Z,94817.78
2024-02-10T14:44:55.808Z,94814.31
2024-02-10T14:47:25.427Z,94807.09
2024-02-10T14:49:53.435Z,94809.50
2024-02-10T14:52:23.525Z,94798.84
2024-02-10T14:54:51.318Z,94798.31
2024-02-10T14:57:19.276Z,94797.00
2024-02-10T14:59:47.116Z,94793.50
2024-02-10T15:02:16.741Z,94801.78
2024-02-10T15:04:48.556Z,94799.94
2024-02-10T15:07:16.202Z,94796.47
2024-02-10T15:09:43.746Z,94789.25
2024-02-10T15:12:12.845Z,94785.75
2024-02-10T15:14:40.390Z,94798.31
2024-02-10T15:17:14.530Z,94793.78
2024-02-10T15:19:44.873Z,94789.50
2024-02-10T15:22:16.358Z,94788.72
2024-02-10T15:24:44.402Z,94784.19
2024-02-10T15:27:14.056Z,94785.50
2024-02-10T15:29:41.714Z,94781.22
2024-02-10T15:32:10.809Z,94769.75
2024-02-10T15:34:47.861Z,94778.28
2024-02-10T15:37:25.068Z,94774.81
2024-02-10T15:39:53.195Z,94771.91
2024-02-10T15:42:20.737Z,94765.50
2024-02-10T15:44:48.390Z,94774.31
2024-02-10T15:47:19.261Z,94772.97
2024-02-10T15:49:47.977Z,94766.84
2024-02-10T15:52:16.793Z,94770.28
2024-02-10T15:54:45.755Z,94768.66
2024-02-10T15:57:13.297Z,94763.34
2024-02-10T15:59:42.683Z,94766.00
2024-02-10T16:02:10.621Z,94780.16
2024-02-10T16:04:40.918Z,94767.34
2024-02-10T16:07:08.499Z,94766.53
2024-02-10T16:09:36.127Z,94768.38
2024-02-10T16:12:08.372Z,94766.50
2024-02-10T16:14:37.733Z,94767.28
2024-02-10T16:17:05.391Z,94778.75
2024-02-10T16:19:40.768Z,94766.75
2024-02-10T16:22:08.855Z,94770.19
2024-02-10T16:24:36.382Z,94770.19
2024-02-10T16:27:06.629Z,94769.13
2024-02-10T16:29:34.669Z,94776.06
2024-02-10T16:32:02.338Z,94769.38
2024-02-10T16:34:30.523Z,94783.50
2024-02-10T16:36:59.791Z,94776.56
2024-02-10T16:39:28.646Z,94776.03
2024-02-10T16:41:57.589Z,94779.72
2024-02-10T16:44:26.922Z,94778.06
2024-02-10T16:47:00.540Z,94792.97
2024-02-10T16:49:29.825Z,94787.09
2024-02-10T16:51:57.389Z,94794.78
2024-02-10T16:54:24.905Z,94791.59
2024-02-10T16:56:53.820Z,94795.03
2024-02-10T16:59:22.763Z,94800.91
2024-02-10T17:01:53.868Z,94791.34
2024-02-10T17:04:23.082Z,94795.56
2024-02-10T17:06:50.861Z,94794.47
2024-02-10T17:09:18.777Z,94794.47
2024-02-10T17:11:46.307Z,94798.16
2024-02-10T17:14:13.926Z,94800.53
2024-02-10T17:16:41.766Z,94809.84
2024-02-10T17:19:12.681Z,94806.94
2024-02-10T17:21:41.791Z,94817.56
2024-02-10T17:24:10.244Z,94814.38
2024-02-10T17:26:38.675Z,94804.50
2024-02-10T17:29:12.030Z,94812.19
2024-02-10T17:31:40.332Z,94814.50
2024-02-10T17:34:08.041Z,94817.72
2024-02-10T17:36:38.071Z,94812.38
2024-02-10T17:39:07.568Z,94817.66
2024-02-10T17:41:38.121Z,94814.44
2024-02-10T17:44:06.251Z,94814.41
2024-02-10T17:46:35.039Z,94815.47
2024-02-10T17:49:02.811Z,94809.31
2024-02-10T17:51:32.056Z,94811.69
2024-02-10T17:54:01.780Z,94811.44
2024-02-10T17:56:29.384Z,94806.31
2024-02-10T17:58:56.943Z,94804.97
2024-02-10T18:01:26.919Z,94800.44
2024-02-10T18:03:55.503Z,94799.13
2024-02-10T18:06:24.206Z,94795.72
2024-02-10T18:08:51.817Z,94797.31
2024-02-10T18:11:20.741Z,94788.47
2024-02-10T18:13:50.897Z,94787.16
2024-02-10T18:16:18.714Z,94786.59
2024-02-10T18:18:49.945Z,94790.88
2024-02-10T18:21:18.068Z,94792.91
2024-02-10T18:23:45.665Z,94789.19
2024-02-10T18:26:13.454Z,94790.97
2024-02-10T18:28:43.152Z,94782.72
2024-02-10T18:31:10.741Z,94782.66
2024-02-10T18:33:38.557Z,94776.06
2024-02-10T18:36:07.611Z,94785.38
2024-02-10T18:38:35.284Z,94781.88
2024-02-10T18:41:02.934Z,94777.91
2024-02-10T18:43:31.291Z,94778.94
2024-02-10T18:46:01.248Z,94778.31
2024-02-10T18:48:29.158Z,94770.91
2024-02-10T18:50:58.353Z,94776.00
2024-02-10T18:53:25.902Z,94765.66
2024-02-10T18:55:54.338Z,94758.78
2024-02-10T18:58:22.691Z,94757.25
2024-02-10T19:00:51.909Z,94765.97
2024-02-10T19:03:21.050Z,94763.00
2024-02-10T19:05:49.457Z,94763.00
2024-02-10T19:08:17.454Z,94758.44
2024-02-10T19:10:45.477Z,94749.94
2024-02-10T19:13:15.315Z,94749.47
2024-02-10T19:15:42.999Z,94745.75
2024-02-10T19:18:10.977Z,94752.84
2024-02-10T19:20:39.858Z,94753.31
2024-02-10T19:23:07.734Z,94756.47
2024-02-10T19:25:35.402Z,94756.16
2024-02-10T19:28:04.527Z,94761.94
2024-02-10T19:30:32.148Z,94767.03
2024-02-10T19:32:59.777Z,94762.78
2024-02-10T19:35:28.887Z,94760.97
2024-02-10T19:37:57.992Z,94758.81
2024-02-10T19:40:25.799Z,94758.16
2024-02-10T19:42:56.089Z,94751.16
2024-02-10T19:45:26.386Z,94751.16
2024-02-10T19:47:54.817Z,94761.94
2024-02-10T19:50:22.679Z,94744.63
2024-02-10T19:52:50.457Z,94752.13
2024-02-10T19:55:20.791Z,94754.28
2024-02-10T19:57:48.687Z,94756.84
2024-02-10T20:00:17.954Z,94754.91
2024-02-10T20:02:45.500Z,94758.63
2024-02-10T20:05:14.255Z,94756.19
2024-02-10T20:07:43.415Z,94756.19
2024-02-10T20:10:14.259Z,94761.53
2024-02-10T20:12:43.720Z,94755.72
2024-02-10T20:15:12.432Z,94757.34
2024-02-10T20:17:42.164Z,94762.41
2024-02-10T20:20:12.117Z,94759.78
2024-02-10T20:22:39.757Z,94756.06
2024-02-10T20:25:08.960Z,94742.03
2024-02-10T20:27:36.481Z,94744.13
2024-02-10T20:30:08.412Z,94737.47
2024-02-10T20:32:36.013Z,94744.69
2024-02-10T20:35:03.861Z,94737.22
2024-02-10T20:37:31.481Z,94738.31
2024-02-10T20:39:58.994Z,94745.81
2024-02-10T20:42:27.415Z,94732.53
2024-02-10T20:44:55.101Z,94743.66
2024-02-10T20:47:24.051Z,94747.75
2024-02-10T20:49:53.181Z,94747.16
2024-02-10T20:52:20.819Z,94738.63
2024-02-10T20:54:49.373Z,94742.41
2024-02-10T20:57:17.848Z,94746.28
2024-02-10T20:59:45.400Z,94736.91
2024-02-10T21:02:14.083Z,94728.38
2024-02-10T21:04:45.947Z,94729.31
2024-02-10T21:07:13.776Z,94730.53
2024-02-10T21:09:41.299Z,94731.88
2024-02-10T21:12:11.151Z,94730.59
2024-02-10T21:14:44.890Z,94726.88
2024-02-10T21:17:12.722Z,94728.56
2024-02-10T21:19:40.340Z,94715.22
2024-02-10T21:22:09.279Z,94713.81
2024-02-10T21:24:36.846Z,94719.66
2024-02-10T21:27:05.951Z,94712.44
2024-02-10T21:29:33.486Z,94708.06
2024-02-10T21:32:01.066Z,94700.56
2024-02-10T21:34:28.790Z,94702.16
2024-02-10T21:36:57.489Z,94701.41
2024-02-10T21:39:27.202Z,94708.13
2024-02-10T21:41:55.498Z,94710.31
2024-02-10T21:44:23.335Z,94697.59
2024-02-10T21:46:51.709Z,94705.06
2024-02-10T21:49:19.365Z,94697.59
2024-02-10T21:51:52.008Z,94699.09
2024-02-10T21:54:19.723Z,94703.88
2024-02-10T21:56:48.956Z,94703.63
2024-02-10T21:59:17.178Z,94695.75
2024-02-10T22:01:49.718Z,94688.31
2024-02-10T22:04:17.356Z,94691.78
2024-02-10T22:06:44.992Z,94681.94
2024-02-10T22:09:12.766Z,94687.78
2024-02-10T22:11:40.335Z,94685.56
2024-02-10T22:14:10.920Z,94694.28
2024-02-10T22:16:38.857Z,94686.91
2024-02-10T22:19:06.534Z,94697.84
2024-02-10T22:21:34.099Z,94684.25
2024-02-10T22:24:01.635Z,94686.16
2024-02-10T22:26:31.878Z,94681.66
2024-02-10T22:29:00.028Z,94683.44
2024-02-10T22:31:36.873Z,94689.78
2024-02-10T22:34:05.367Z,94685.47
2024-02-10T22:36:34.724Z,94686.25
2024-02-10T22:39:13.498Z,94678.25
2024-02-10T22:41:42.021Z,94687.59
2024-02-10T22:44:11.763Z,94669.00
2024-02-10T22:46:43.360Z,94668.44
2024-02-10T22:49:11.496Z,94675.28
2024-02-10T22:51:39.279Z,94673.78
2024-02-10T22:54:07.101Z,94672.44
2024-02-10T22:56:35.616Z,94677.44
2024-02-10T22:59:03.538Z,94670.31
2024-02-10T23:01:32.645Z,94668.22
2024-02-10T23:04:02.316Z,94660.25
2024-02-10T23:06:32.779Z,94660.25
2024-02-10T23:09:03.146Z,94664.47
2024-02-10T23:11:31.772Z,94668.66
2024-02-10T23:13:59.313Z,94663.03
2024-02-10T23:16:28.206Z,94674.94
2024-02-10T23:18:57.509Z,94666.22
2024-02-10T23:21:27.681Z,94669.72
2024-02-10T23:23:59.942Z,94662.56
2024-02-10T23:26:27.933Z,94661.50
2024-02-10T23:28:57.560Z,94662.06
2024-02-10T23:31:27.646Z,94664.97
2024-02-10T23:33:55.318Z,94653.78
2024-02-10T23:36:26.251Z,94660.84
2024-02-10T23:38:59.185Z,94662.00
2024-02-10T23:41:28.869Z,94646.88
2024-02-10T23:43:56.517Z,94653.31
2024-02-10T23:46:24.244Z,94648.22
2024-02-10T23:48:55.398Z,94648.22
2024-02-10T23:51:23.825Z,94646.38
2024-02-10T23:53:53.629Z,94651.09
2024-02-10T23:56:23.118Z,94652.91
2024-02-10T23:58:51.712Z,94653.66
